createdAt,value
2018-07-19T00:01:47.931Z,13.60
2018-07-19T00:04:16.798Z,13.50
2018-07-19T00:06:45.701Z,13.40
2018-07-19T00:09:14.592Z,13.30
2018-07-19T00:11:43.442Z,13.20
2018-07-19T00:14:12.319Z,13.20
2018-07-19T00:16:41.212Z,13.10
2018-07-19T00:19:10.082Z,12.90
2018-07-19T00:21:38.962Z,12.90
2018-07-19T00:24:07.871Z,12.80
2018-07-19T00:26:36.758Z,12.70
2018-07-19T00:29:05.630Z,12.80
2018-07-19T00:31:34.525Z,12.70
2018-07-19T00:34:03.405Z,12.70
2018-07-19T00:36:32.289Z,12.60
2018-07-19T00:39:01.170Z,12.60
2018-07-19T00:41:30.046Z,12.60
2018-07-19T00:43:58.935Z,12.80
2018-07-19T00:46:27.811Z,12.80
2018-07-19T00:48:56.700Z,12.60
2018-07-19T00:51:25.566Z,12.70
2018-07-19T00:53:54.458Z,12.60
2018-07-19T00:56:23.340Z,12.60
2018-07-19T00:58:52.257Z,12.70
2018-07-19T01:01:21.094Z,12.60
2018-07-19T01:03:50.075Z,12.50
2018-07-19T01:06:19.008Z,12.40
2018-07-19T01:08:47.878Z,12.40
2018-07-19T01:11:16.754Z,12.40
2018-07-19T01:13:45.634Z,12.30
2018-07-19T01:16:14.526Z,12.30
2018-07-19T01:18:43.406Z,12.40
2018-07-19T01:21:12.282Z,12.40
2018-07-19T01:23:41.168Z,12.40
2018-07-19T01:26:10.054Z,12.40
2018-07-19T01:28:38.943Z,12.30
2018-07-19T01:31:07.982Z,12.30
2018-07-19T01:33:36.883Z,12.40
2018-07-19T01:36:05.766Z,12.30
2018-07-19T01:38:34.735Z,12.30
2018-07-19T01:41:17.922Z,12.40
2018-07-19T01:43:46.822Z,12.30
2018-07-19T01:46:15.720Z,12.30
2018-07-19T01:48:44.646Z,12.20
2018-07-19T01:51:13.542Z,12.20
2018-07-19T01:53:42.426Z,12.20
2018-07-19T01:56:11.316Z,12.10
2018-07-19T01:58:40.207Z,12.10
2018-07-19T02:01:09.087Z,12.10
2018-07-19T02:03:37.978Z,12.00
2018-07-19T02:06:06.858Z,12.00
2018-07-19T02:08:35.742Z,12.00
2018-07-19T02:11:04.623Z,12.00
2018-07-19T02:13:33.533Z,11.90
2018-07-19T02:16:02.407Z,11.90
2018-07-19T02:18:31.283Z,11.90
2018-07-19T02:21:00.161Z,11.90
2018-07-19T02:23:29.036Z,11.90
2018-07-19T02:25:57.912Z,12.00
2018-07-19T02:28:26.794Z,12.00
2018-07-19T02:30:55.727Z,12.00
2018-07-19T02:33:24.612Z,11.90
2018-07-19T02:38:22.122Z,11.80
2018-07-19T02:40:51.003Z,11.80
2018-07-19T02:43:19.902Z,11.90
2018-07-19T02:45:48.794Z,11.80
2018-07-19T02:48:17.679Z,11.70
2018-07-19T02:50:46.562Z,11.80
2018-07-19T02:53:15.466Z,11.70
2018-07-19T02:55:44.496Z,11.60
2018-07-19T02:58:14.405Z,11.50
2018-07-19T03:00:43.303Z,11.40
2018-07-19T03:03:12.183Z,11.20
2018-07-19T03:05:41.064Z,11.30
2018-07-19T03:08:09.940Z,11.20
2018-07-19T03:10:38.839Z,11.20
2018-07-19T03:13:07.708Z,11.10
2018-07-19T03:15:36.590Z,11.20
2018-07-19T03:18:05.510Z,11.20
2018-07-19T03:20:34.389Z,11.10
2018-07-19T03:23:03.285Z,11.10
2018-07-19T03:25:32.154Z,11.10
2018-07-19T03:28:01.042Z,11.10
2018-07-19T03:30:29.947Z,11.10
2018-07-19T03:32:58.823Z,11.10
2018-07-19T03:35:27.700Z,11.00
2018-07-19T03:37:56.578Z,10.90
2018-07-19T03:40:25.459Z,10.90
2018-07-19T03:45:29.702Z,10.80
2018-07-19T03:48:04.983Z,10.90
2018-07-19T03:50:33.943Z,10.80
2018-07-19T03:53:02.826Z,10.90
2018-07-19T03:55:31.783Z,10.90
2018-07-19T03:58:00.684Z,10.90
2018-07-19T04:00:29.575Z,11.00
2018-07-19T04:02:58.453Z,11.00
2018-07-19T04:05:27.351Z,11.10
2018-07-19T04:07:56.225Z,11.00
2018-07-19T04:10:25.114Z,11.10
2018-07-19T04:12:53.992Z,11.10
2018-07-19T04:15:22.883Z,11.20
2018-07-19T04:17:53.965Z,11.20
2018-07-19T04:20:24.090Z,11.30
2018-07-19T04:22:53.435Z,11.20
2018-07-19T04:25:22.695Z,11.20
2018-07-19T04:27:51.770Z,11.20
2018-07-19T04:30:20.678Z,11.10
2018-07-19T04:32:49.545Z,11.10
2018-07-19T04:35:19.062Z,11.20
2018-07-19T04:37:47.931Z,11.30
2018-07-19T04:40:16.873Z,11.40
2018-07-19T04:42:45.733Z,11.50
2018-07-19T04:45:14.631Z,11.60
2018-07-19T04:47:43.522Z,11.60
2018-07-19T04:50:12.398Z,11.60
2018-07-19T04:52:41.289Z,11.60
2018-07-19T04:55:10.171Z,11.60
2018-07-19T04:57:39.281Z,11.70
2018-07-19T05:00:08.193Z,11.70
2018-07-19T05:02:37.082Z,11.90
2018-07-19T05:05:05.983Z,12.00
2018-07-19T05:07:34.860Z,12.20
2018-07-19T05:10:03.751Z,12.30
2018-07-19T05:12:32.695Z,12.50
2018-07-19T05:15:01.554Z,12.60
2018-07-19T05:17:30.436Z,12.70
2018-07-19T05:19:59.311Z,12.90
2018-07-19T05:22:28.199Z,13.00
2018-07-19T05:24:57.095Z,13.20
2018-07-19T05:27:25.974Z,13.30
2018-07-19T05:29:54.930Z,13.50
2018-07-19T05:32:23.848Z,13.60
2018-07-19T05:34:52.726Z,13.70
2018-07-19T05:37:21.645Z,13.90
2018-07-19T05:39:50.483Z,14.00
2018-07-19T05:42:19.377Z,14.10
2018-07-19T05:44:48.268Z,14.20
2018-07-19T05:47:17.156Z,14.40
2018-07-19T05:49:46.025Z,14.50
2018-07-19T05:52:14.955Z,14.70
2018-07-19T05:54:43.814Z,14.80
2018-07-19T05:57:12.723Z,15.00
2018-07-19T05:59:41.599Z,15.10
2018-07-19T06:02:10.574Z,15.30
2018-07-19T06:04:39.475Z,15.50
2018-07-19T06:07:08.363Z,15.60
2018-07-19T06:09:37.278Z,15.80
2018-07-19T06:12:06.124Z,15.90
2018-07-19T06:14:34.999Z,16.10
2018-07-19T06:17:03.899Z,16.10
2018-07-19T06:19:32.781Z,16.40
2018-07-19T06:22:01.670Z,16.60
2018-07-19T06:24:30.554Z,16.80
2018-07-19T06:26:59.446Z,17.00
2018-07-19T06:29:28.357Z,17.20
2018-07-19T06:31:57.242Z,17.40
2018-07-19T06:34:26.119Z,17.70
2018-07-19T06:36:55.009Z,18.00
2018-07-19T06:39:23.887Z,18.20
2018-07-19T06:46:49.914Z,18.90
2018-07-19T06:49:18.796Z,19.10
2018-07-19T06:51:47.676Z,19.30
2018-07-19T06:54:16.542Z,19.60
2018-07-19T06:56:45.438Z,19.70
2018-07-19T06:59:14.318Z,19.80
2018-07-19T07:01:43.214Z,20.10
2018-07-19T07:04:12.087Z,20.20
2018-07-19T07:06:40.976Z,20.40
2018-07-19T07:09:11.294Z,20.60
2018-07-19T07:11:40.401Z,20.60
2018-07-19T07:14:09.325Z,20.90
2018-07-19T07:16:38.212Z,21.10
2018-07-19T07:19:07.086Z,21.10
2018-07-19T07:21:36.056Z,21.30
2018-07-19T07:24:05.027Z,21.50
2018-07-19T07:26:33.915Z,21.60
2018-07-19T07:29:02.803Z,21.60
2018-07-19T07:31:31.690Z,21.80
2018-07-19T07:34:00.642Z,22.20
2018-07-19T07:36:31.261Z,22.30
2018-07-19T07:39:00.147Z,22.30
2018-07-19T07:41:29.013Z,22.30
2018-07-19T07:43:57.908Z,22.50
2018-07-19T07:46:26.792Z,22.50
2018-07-19T07:48:55.726Z,22.60
2018-07-19T07:51:24.587Z,22.70
2018-07-19T07:53:53.469Z,23.00
2018-07-19T07:56:22.374Z,23.10
2018-07-19T07:58:51.250Z,23.20
2018-07-19T08:01:20.140Z,23.10
2018-07-19T08:03:49.035Z,23.30
2018-07-19T08:06:17.907Z,23.30
2018-07-19T08:08:46.790Z,23.10
2018-07-19T08:11:15.665Z,23.20
2018-07-19T08:13:44.674Z,23.60
2018-07-19T08:16:13.597Z,23.90
2018-07-19T08:18:42.508Z,23.80
2018-07-19T08:21:11.382Z,23.80
2018-07-19T08:23:40.271Z,24.00
2018-07-19T08:26:09.134Z,24.00
2018-07-19T08:28:38.022Z,24.20
2018-07-19T08:31:06.906Z,24.30
2018-07-19T08:33:35.835Z,24.10
2018-07-19T08:36:04.827Z,24.50
2018-07-19T08:38:33.719Z,24.80
2018-07-19T08:41:02.599Z,24.60
2018-07-19T08:43:31.492Z,24.70
2018-07-19T08:46:00.368Z,25.00
2018-07-19T08:48:29.269Z,25.00
2018-07-19T08:50:58.175Z,25.10
2018-07-19T08:53:27.062Z,25.30
2018-07-19T08:55:55.950Z,25.40
2018-07-19T08:58:24.866Z,25.60
2018-07-19T09:00:53.743Z,25.60
2018-07-19T09:03:22.622Z,25.90
2018-07-19T09:05:51.619Z,25.80
2018-07-19T09:08:20.526Z,26.00
2018-07-19T09:10:49.407Z,26.20
2018-07-19T09:13:18.278Z,26.40
2018-07-19T09:15:47.430Z,26.50
2018-07-19T09:18:16.403Z,26.80
2018-07-19T09:20:45.286Z,26.90
2018-07-19T09:23:14.211Z,26.70
2018-07-19T09:25:43.110Z,26.50
2018-07-19T09:28:12.307Z,26.60
2018-07-19T09:30:41.187Z,26.80
2018-07-19T09:33:10.084Z,26.40
2018-07-19T09:35:38.965Z,26.50
2018-07-19T09:38:07.833Z,26.50
2018-07-19T09:40:36.726Z,27.00
2018-07-19T09:43:05.614Z,26.80
2018-07-19T09:45:34.498Z,26.60
2018-07-19T09:48:03.373Z,27.00
2018-07-19T09:50:32.257Z,27.30
2018-07-19T09:53:01.130Z,27.70
2018-07-19T09:55:30.118Z,27.80
2018-07-19T09:57:59.011Z,27.70
2018-07-19T10:00:33.301Z,27.80
2018-07-19T10:03:02.178Z,28.10
2018-07-19T10:05:31.879Z,28.20
2018-07-19T10:08:00.770Z,28.30
2018-07-19T10:10:29.654Z,28.20
2018-07-19T10:12:58.598Z,28.10
2018-07-19T10:15:27.494Z,28.10
2018-07-19T10:17:56.370Z,28.20
2018-07-19T10:20:25.267Z,28.10
2018-07-19T10:22:54.135Z,28.20
2018-07-19T10:25:23.147Z,28.40
2018-07-19T10:27:52.039Z,28.20
2018-07-19T10:30:20.938Z,28.30
2018-07-19T10:32:49.810Z,28.40
2018-07-19T10:35:18.702Z,28.50
2018-07-19T10:37:47.838Z,28.50
2018-07-19T10:40:16.735Z,28.30
2018-07-19T10:42:45.611Z,28.30
2018-07-19T10:45:14.499Z,28.00
2018-07-19T10:47:43.386Z,27.90
2018-07-19T10:50:12.274Z,28.20
2018-07-19T10:52:41.168Z,28.30
2018-07-19T10:55:10.072Z,28.20
2018-07-19T10:57:38.962Z,28.50
2018-07-19T11:00:07.866Z,28.30
2018-07-19T11:02:36.745Z,28.30
2018-07-19T11:05:05.646Z,28.40
2018-07-19T11:07:34.530Z,28.60
2018-07-19T11:10:03.476Z,28.60
2018-07-19T11:12:32.335Z,28.60
2018-07-19T11:15:01.242Z,28.60
2018-07-19T11:17:30.545Z,28.40
2018-07-19T11:19:59.432Z,28.50
2018-07-19T11:22:28.294Z,28.30
2018-07-19T11:24:57.197Z,28.40
2018-07-19T11:27:26.082Z,28.40
2018-07-19T11:29:55.006Z,28.30
2018-07-19T11:32:23.904Z,28.30
2018-07-19T11:34:52.789Z,27.80
2018-07-19T11:37:21.670Z,27.90
2018-07-19T11:39:50.548Z,28.20
2018-07-19T11:42:19.460Z,27.90
2018-07-19T11:44:48.360Z,28.10
2018-07-19T11:47:17.253Z,28.30
2018-07-19T11:49:46.146Z,28.10
2018-07-19T11:52:15.015Z,28.50
2018-07-19T11:54:43.993Z,28.50
2018-07-19T11:57:12.908Z,28.50
2018-07-19T11:59:41.788Z,28.60
2018-07-19T12:02:10.688Z,28.80
2018-07-19T12:04:39.558Z,28.80
2018-07-19T12:07:08.443Z,29.00
2018-07-19T12:09:37.315Z,28.80
2018-07-19T12:12:06.295Z,28.80
2018-07-19T12:14:35.266Z,29.00
2018-07-19T12:17:04.125Z,29.10
2018-07-19T12:19:33.004Z,29.30
2018-07-19T12:22:01.892Z,29.40
2018-07-19T12:24:30.774Z,29.40
2018-07-19T12:26:59.653Z,29.50
2018-07-19T12:29:28.547Z,29.50
2018-07-19T12:31:57.442Z,29.10
2018-07-19T12:34:26.366Z,29.20
2018-07-19T12:36:55.422Z,29.40
2018-07-19T12:39:24.271Z,29.30
2018-07-19T12:41:53.159Z,29.20
2018-07-19T12:44:22.053Z,29.00
2018-07-19T12:46:50.962Z,29.10
2018-07-19T12:49:20.046Z,29.20
2018-07-19T12:51:48.930Z,29.30
2018-07-19T12:54:17.802Z,29.20
2018-07-19T12:56:46.711Z,29.30
2018-07-19T12:59:15.687Z,29.50
2018-07-19T13:01:44.582Z,29.50
2018-07-19T13:04:13.462Z,28.80
2018-07-19T13:06:42.623Z,28.60
2018-07-19T13:09:11.512Z,28.60
2018-07-19T13:11:40.410Z,28.50
2018-07-19T13:14:09.295Z,28.30
2018-07-19T13:16:38.203Z,28.00
2018-07-19T13:19:07.090Z,27.90
2018-07-19T13:21:36.014Z,28.20
2018-07-19T13:24:04.919Z,28.50
2018-07-19T13:26:33.803Z,28.50
2018-07-19T13:29:02.683Z,28.60
2018-07-19T13:31:31.574Z,28.90
2018-07-19T13:34:00.451Z,28.80
2018-07-19T13:36:29.419Z,28.90
2018-07-19T13:38:58.543Z,28.90
2018-07-19T13:41:27.426Z,28.70
2018-07-19T13:43:56.654Z,28.90
2018-07-19T13:46:25.542Z,28.80
2018-07-19T13:48:54.446Z,28.50
2018-07-19T13:51:23.359Z,28.50
2018-07-19T13:54:18.132Z,28.70
2018-07-19T13:56:47.269Z,28.80
2018-07-19T13:59:16.894Z,29.00
2018-07-19T14:01:45.786Z,29.10
2018-07-19T14:04:14.681Z,29.10
2018-07-19T14:06:43.610Z,29.20
2018-07-19T14:09:13.880Z,29.10
2018-07-19T14:11:42.762Z,29.10
2018-07-19T14:14:11.751Z,29.30
2018-07-19T14:16:40.646Z,29.30
2018-07-19T14:19:09.510Z,29.30
2018-07-19T14:21:38.398Z,29.30
2018-07-19T14:24:07.298Z,29.40
2018-07-19T14:26:36.213Z,29.10
2018-07-19T14:29:05.136Z,29.20
2018-07-19T14:31:34.111Z,29.20
2018-07-19T14:34:02.998Z,29.20
2018-07-19T14:36:31.874Z,29.00
2018-07-19T14:39:00.757Z,28.70
2018-07-19T14:41:29.641Z,28.40
2018-07-19T14:43:58.605Z,28.50
2018-07-19T14:46:27.495Z,28.70
2018-07-19T14:48:56.392Z,28.80
2018-07-19T14:51:25.264Z,28.90
2018-07-19T14:53:54.571Z,29.00
2018-07-19T14:56:23.434Z,28.80
2018-07-19T14:58:52.322Z,28.50
2018-07-19T15:01:21.473Z,28.20
2018-07-19T15:03:50.355Z,28.10
2018-07-19T15:06:19.222Z,27.70
2018-07-19T15:08:48.130Z,27.50
2018-07-19T15:11:17.008Z,27.30
2018-07-19T15:13:45.903Z,27.20
2018-07-19T15:16:15.144Z,27.20
2018-07-19T15:18:44.004Z,27.30
2018-07-19T15:21:12.890Z,27.60
2018-07-19T15:23:41.872Z,27.80
2018-07-19T15:26:10.751Z,27.90
2018-07-19T15:28:39.637Z,27.80
2018-07-19T15:31:08.534Z,27.90
2018-07-19T15:33:37.418Z,27.70
2018-07-19T15:36:06.582Z,27.50
2018-07-19T15:38:35.634Z,27.30
2018-07-19T15:41:04.509Z,27.00
2018-07-19T15:43:33.436Z,26.70
2018-07-19T15:46:02.340Z,26.50
2018-07-19T15:48:31.192Z,26.50
2018-07-19T15:51:00.943Z,26.40
2018-07-19T15:53:29.933Z,26.50
2018-07-19T15:55:58.857Z,26.80
2018-07-19T15:58:27.846Z,27.00
2018-07-19T16:00:56.724Z,26.90
2018-07-19T16:03:25.631Z,26.70
2018-07-19T16:05:54.503Z,26.60
2018-07-19T16:08:23.406Z,26.60
2018-07-19T16:10:52.288Z,26.50
2018-07-19T16:13:21.162Z,26.40
2018-07-19T16:15:50.091Z,26.20
2018-07-19T16:18:18.986Z,26.30
2018-07-19T16:20:48.754Z,26.50
2018-07-19T16:23:18.007Z,26.40
2018-07-19T16:25:46.891Z,26.50
2018-07-19T16:28:15.812Z,26.50
2018-07-19T16:30:44.740Z,26.30
2018-07-19T16:33:13.999Z,26.30
2018-07-19T16:35:42.861Z,26.30
2018-07-19T16:38:11.763Z,26.10
2018-07-19T16:40:40.634Z,26.10
2018-07-19T16:43:09.550Z,26.10
2018-07-19T16:45:38.437Z,26.00
2018-07-19T16:48:07.324Z,25.90
2018-07-19T16:50:36.203Z,25.90
2018-07-19T16:53:05.103Z,25.80
2018-07-19T16:55:34.039Z,25.70
2018-07-19T16:58:02.915Z,25.70
2018-07-19T17:00:32.085Z,25.60
2018-07-19T17:03:01.177Z,25.60
2018-07-19T17:05:30.129Z,25.70
2018-07-19T17:07:59.292Z,25.60
2018-07-19T17:10:28.173Z,25.50
2018-07-19T17:12:57.051Z,25.50
2018-07-19T17:15:25.945Z,25.50
2018-07-19T17:17:54.819Z,25.70
2018-07-19T17:20:23.714Z,25.70
2018-07-19T17:22:52.579Z,25.60
2018-07-19T17:25:21.486Z,25.60
2018-07-19T17:27:51.188Z,25.60
2018-07-19T17:30:20.106Z,25.50
2018-07-19T17:32:48.978Z,25.60
2018-07-19T17:35:17.882Z,25.70
2018-07-19T17:37:46.773Z,25.80
2018-07-19T17:40:15.893Z,25.80
2018-07-19T17:42:44.771Z,25.70
2018-07-19T17:45:13.641Z,25.60
2018-07-19T17:47:42.527Z,25.50
2018-07-19T17:50:11.498Z,25.40
2018-07-19T17:52:40.386Z,25.20
2018-07-19T17:55:09.275Z,25.00
2018-07-19T17:57:38.160Z,25.00
2018-07-19T18:00:07.054Z,24.90
2018-07-19T18:02:35.924Z,24.90
2018-07-19T18:05:04.991Z,24.90
2018-07-19T18:07:33.869Z,24.90
2018-07-19T18:10:02.767Z,24.90
2018-07-19T18:12:31.629Z,24.90
2018-07-19T18:17:29.098Z,24.90
2018-07-19T18:19:57.985Z,24.80
2018-07-19T18:22:27.095Z,24.70
2018-07-19T18:24:55.983Z,24.60
2018-07-19T18:27:24.853Z,24.50
2018-07-19T18:29:53.811Z,24.30
2018-07-19T18:32:22.627Z,24.30
2018-07-19T18:34:51.522Z,24.20
2018-07-19T18:37:20.417Z,24.10
2018-07-19T18:39:49.683Z,24.10
2018-07-19T18:42:18.563Z,24.00
2018-07-19T18:44:47.450Z,23.90
2018-07-19T18:47:16.340Z,23.80
2018-07-19T18:49:45.223Z,23.70
2018-07-19T18:52:14.100Z,23.60
2018-07-19T18:54:43.011Z,23.40
2018-07-19T18:57:11.876Z,23.30
2018-07-19T18:59:40.756Z,23.20
2018-07-19T19:02:09.685Z,23.00
2018-07-19T19:04:38.575Z,22.90
2018-07-19T19:07:07.520Z,22.70
2018-07-19T19:09:36.383Z,22.60
2018-07-19T19:14:33.867Z,22.30
2018-07-19T19:17:03.454Z,22.20
2018-07-19T19:19:32.334Z,22.10
2018-07-19T19:24:29.777Z,21.90
2018-07-19T19:26:58.667Z,21.80
2018-07-19T19:29:27.569Z,21.70
2018-07-19T19:31:56.459Z,21.60
2018-07-19T19:34:25.364Z,21.40
2018-07-19T19:36:54.238Z,21.30
2018-07-19T19:39:23.110Z,21.20
2018-07-19T19:41:51.993Z,20.90
2018-07-19T19:44:20.908Z,20.90
2018-07-19T19:46:50.096Z,20.90
2018-07-19T19:49:18.965Z,20.70
2018-07-19T19:51:47.853Z,20.60
2018-07-19T19:54:16.815Z,20.50
2018-07-19T19:56:45.652Z,20.30
2018-07-19T19:59:14.522Z,20.30
2018-07-19T20:01:43.426Z,20.20
2018-07-19T20:04:12.294Z,20.10
2018-07-19T20:06:41.175Z,20.10
2018-07-19T20:09:11.291Z,20.20
2018-07-19T20:11:40.194Z,20.20
2018-07-19T20:14:09.070Z,20.10
2018-07-19T20:16:37.981Z,20.10
2018-07-19T20:19:06.854Z,20.00
2018-07-19T20:21:35.730Z,20.00
2018-07-19T20:24:04.594Z,20.00
2018-07-19T20:26:33.591Z,20.00
2018-07-19T20:29:02.483Z,19.90
2018-07-19T20:31:31.386Z,19.80
2018-07-19T20:34:00.307Z,19.80
2018-07-19T20:36:29.309Z,19.60
2018-07-19T20:38:58.327Z,19.50
2018-07-19T20:41:27.206Z,19.40
2018-07-19T20:43:56.078Z,19.30
2018-07-19T20:46:24.968Z,19.20
2018-07-19T20:48:53.917Z,19.10
2018-07-19T20:51:22.753Z,19.00
2018-07-19T20:53:51.618Z,19.00
2018-07-19T20:56:20.498Z,18.90
2018-07-19T20:58:49.386Z,18.90
2018-07-19T21:01:18.266Z,18.80
2018-07-19T21:03:47.153Z,18.80
2018-07-19T21:06:16.045Z,18.60
2018-07-19T21:08:44.920Z,18.50
2018-07-19T21:11:13.874Z,18.50
2018-07-19T21:13:42.754Z,18.40
2018-07-19T21:16:11.652Z,18.40
2018-07-19T21:18:40.590Z,18.50
2018-07-19T21:21:09.443Z,18.40
2018-07-19T21:23:38.663Z,18.40
2018-07-19T21:26:07.570Z,18.40
2018-07-19T21:28:36.431Z,18.10
2018-07-19T21:31:05.386Z,17.90
2018-07-19T21:33:34.282Z,17.90
2018-07-19T21:36:03.163Z,17.90
2018-07-19T21:38:32.054Z,17.90
2018-07-19T21:41:00.952Z,17.90
2018-07-19T21:45:58.371Z,18.00
2018-07-19T21:48:27.250Z,18.00
2018-07-19T21:50:56.113Z,18.10
2018-07-19T21:53:24.994Z,18.20
2018-07-19T21:55:53.866Z,18.20
2018-07-19T21:58:22.764Z,18.10
2018-07-19T22:00:57.039Z,18.10
2018-07-19T22:03:25.971Z,18.00
2018-07-19T22:05:54.845Z,17.90
2018-07-19T22:08:23.742Z,18.00
2018-07-19T22:10:52.623Z,18.00
2018-07-19T22:13:21.512Z,17.90
2018-07-19T22:15:50.406Z,17.80
2018-07-19T22:18:19.299Z,17.70
2018-07-19T22:20:48.231Z,17.50
2018-07-19T22:23:17.120Z,17.50
2018-07-19T22:25:46.027Z,17.50
2018-07-19T22:28:14.892Z,17.50
2018-07-19T22:30:43.782Z,17.40
2018-07-19T22:33:12.670Z,17.50
2018-07-19T22:35:41.550Z,17.40
2018-07-19T22:38:10.497Z,17.40
2018-07-19T22:40:39.366Z,17.30
2018-07-19T22:43:08.252Z,17.40
2018-07-19T22:45:37.164Z,17.40
2018-07-19T22:48:06.041Z,17.50
2018-07-19T22:50:34.910Z,17.50
2018-07-19T22:53:03.806Z,17.60
2018-07-19T22:55:32.693Z,17.60
2018-07-19T22:58:01.598Z,17.70
2018-07-19T23:00:30.827Z,17.70
2018-07-19T23:02:59.732Z,17.70
2018-07-19T23:05:28.609Z,17.60
2018-07-19T23:07:57.502Z,17.60
2018-07-19T23:10:26.736Z,17.60
2018-07-19T23:12:55.639Z,17.60
2018-07-19T23:15:24.511Z,17.50
2018-07-19T23:17:53.547Z,17.40
2018-07-19T23:20:22.395Z,17.30
2018-07-19T23:22:53.343Z,17.30
2018-07-19T23:25:22.245Z,17.30
2018-07-19T23:27:51.456Z,17.30
2018-07-19T23:30:20.823Z,17.30
2018-07-19T23:32:49.705Z,17.30
2018-07-19T23:35:19.218Z,17.30
2018-07-19T23:37:49.888Z,17.30
2018-07-19T23:40:25.815Z,17.30
2018-07-19T23:43:00.254Z,17.30
2018-07-19T23:45:36.690Z,17.40
2018-07-19T23:48:05.581Z,17.40
2018-07-19T23:50:34.462Z,17.40
2018-07-19T23:53:03.374Z,17.40
2018-07-19T23:55:32.258Z,17.30
2018-07-19T23:58:01.135Z,17.30
